ENML

Molde Airport

Årø, Norway
METAR ENML 230350Z AUTO 27013KT 9999NDV -SHRA FEW022/// SCT042/// 07/04 Q0999
Observed Flight Rules
Sep-23 @ 03:50 UTC (48 minutes ago)
Wind Clouds Conditions
270° at 13 knots
Temperatures Readings
Current 7°C / 45°F
Dewpoint 4°C / 39°F
Humidity 81%
Altimeter 29.5" Hg
Pressure 999 hPa
Elevation 3
METAR ENML 230350Z AUTO 27013KT 9999NDV -SHRA FEW022/// SCT042/// 07/04 Q0999
Observed Flight Rules
Sep-23 @ 03:50 UTC
(48 minutes ago)
Wind
270° at 13 knots
Clouds
Conditions
Temperature Dewpoint
7°C / 45°F 4°C / 39°F
Humidity Altimeter Pressure
81% 29.5" Hg 999 hPa